Time;durP1;ratioP1;P1;durP2;ratioP2;P2;SDS_P1;SDS_P2;PMS_P1;PMS_P2;Temp;Humidity;BMP_temperature;BMP_pressure;BME280_temperature;BME280_humidity;BME280_pressure;Samples;Min_cycle;Max_cycle;Signal;HPM_P1;HPM_P2
2021/07/20 00:01:07;;;;;;;9.18;5.38;;;;;;;15.00;64.29;100120.52;154074;1101;103201;-70
2021/07/20 00:04:12;;;;;;;7.95;5.40;;;;;;;14.98;64.12;100127.92;153915;1101;103096;-71
2021/07/20 00:07:17;;;;;;;8.88;5.45;;;;;;;14.88;64.71;100123.66;153868;1101;103111;-72
2021/07/20 00:10:26;;;;;;;8.97;5.70;;;;;;;14.82;64.63;100123.54;153934;1101;103113;-74
2021/07/20 00:13:31;;;;;;;6.65;5.15;;;;;;;14.69;64.59;100130.39;154011;1101;103128;-72
2021/07/20 00:16:36;;;;;;;8.73;5.00;;;;;;;14.65;65.08;100125.58;153948;1101;103278;-71
2021/07/20 00:19:41;;;;;;;6.67;4.80;;;;;;;14.66;64.73;100130.74;154009;1101;103141;-71
2021/07/20 00:22:46;;;;;;;8.27;5.10;;;;;;;14.60;64.52;100123.42;154009;1093;103147;-72
2021/07/20 00:25:51;;;;;;;7.47;5.07;;;;;;;14.53;64.70;100125.98;153987;1093;103230;-71
2021/07/20 00:28:57;;;;;;;7.60;5.33;;;;;;;14.48;65.03;100122.18;153888;1101;103222;-73
2021/07/20 00:32:02;;;;;;;10.58;5.53;;;;;;;14.47;64.92;100117.81;153799;1094;103243;-71
2021/07/20 00:35:10;;;;;;;7.55;5.10;;;;;;;14.47;64.88;100124.04;153917;1093;103140;-71
2021/07/20 00:38:16;;;;;;;7.85;5.58;;;;;;;14.45;64.94;100123.39;153871;1093;103144;-72
2021/07/20 00:41:23;;;;;;;7.08;5.40;;;;;;;14.37;65.04;100120.75;154006;1093;103174;-72
2021/07/20 00:44:29;;;;;;;7.00;4.45;;;;;;;14.33;65.32;100125.64;153967;1101;103222;-72
2021/07/20 00:47:34;;;;;;;8.25;4.83;;;;;;;14.33;65.37;100122.13;153987;1093;103253;-74
2021/07/20 00:50:44;;;;;;;6.23;4.77;;;;;;;14.37;65.06;100118.06;154060;1101;103244;-72
2021/07/20 00:53:52;;;;;;;5.95;4.68;;;;;;;14.37;65.49;100114.55;153867;1101;103136;-72
2021/07/20 00:57:04;;;;;;;7.40;5.30;;;;;;;14.38;65.31;100106.33;153948;1101;103225;-72
2021/07/20 01:00:14;;;;;;;7.60;5.40;;;;;;;14.40;65.54;100106.16;154014;1101;103096;-71
2021/07/20 01:03:19;;;;;;;8.57;5.43;;;;;;;14.37;65.84;100104.64;154002;1094;103310;-72
2021/07/20 01:06:26;;;;;;;6.15;5.13;;;;;;;14.38;65.69;100106.33;154058;1101;103227;-73
2021/07/20 01:09:32;;;;;;;9.80;5.40;;;;;;;14.37;65.93;100101.96;154022;1101;103192;-70
2021/07/20 01:12:42;;;;;;;6.45;4.53;;;;;;;14.38;65.99;100095.59;153855;1101;103572;-72
2021/07/20 01:15:47;;;;;;;7.70;5.45;;;;;;;14.44;65.72;100100.23;154040;1101;103220;-73
2021/07/20 01:18:54;;;;;;;8.03;5.48;;;;;;;14.46;65.97;100092.82;154071;1101;103187;-72
2021/07/20 01:22:01;;;;;;;8.60;5.73;;;;;;;14.48;66.12;100093.47;154139;1093;103278;-73
2021/07/20 01:25:12;;;;;;;7.70;5.50;;;;;;;14.50;66.25;100088.75;153989;1094;103122;-73
2021/07/20 01:28:20;;;;;;;7.80;5.80;;;;;;;14.54;66.03;100089.23;153983;1101;103241;-72
2021/07/20 01:31:28;;;;;;;6.50;5.10;;;;;;;14.52;66.26;100097.45;153961;1101;103509;-74
2021/07/20 01:34:43;;;;;;;8.03;5.23;;;;;;;14.49;66.27;100094.30;153922;1093;103257;-73
2021/07/20 01:37:51;;;;;;;6.85;4.35;;;;;;;14.49;66.05;100096.98;154037;1093;103154;-73
2021/07/20 01:41:07;;;;;;;6.75;4.90;;;;;;;14.48;66.17;100089.96;154027;1101;103157;-72
2021/07/20 01:44:13;;;;;;;6.90;5.27;;;;;;;14.46;66.05;100094.68;154016;1101;103320;-73
2021/07/20 01:47:27;;;;;;;9.50;5.47;;;;;;;14.44;66.10;100083.30;154022;1093;103196;-72
2021/07/20 01:50:35;;;;;;;7.78;5.50;;;;;;;14.40;66.12;100087.36;154048;1101;103281;-73
2021/07/20 01:53:43;;;;;;;7.67;5.37;;;;;;;14.37;66.46;100085.03;154019;1101;103160;-70
2021/07/20 01:56:49;;;;;;;6.70;5.28;;;;;;;14.30;66.40;100082.25;154017;1093;103205;-72
2021/07/20 01:59:57;;;;;;;8.70;5.83;;;;;;;14.29;66.61;100083.25;153935;1101;103100;-72
2021/07/20 02:03:30;;;;;;;12.20;5.45;;;;;;;14.26;66.65;100088.97;153980;1093;103607;-72
2021/07/20 02:10:20;;;;;;;7.75;5.40;;;;;;;14.18;66.61;100097.92;154121;1094;103123;-70
2021/07/20 02:13:51;;;;;;;7.00;5.40;;;;;;;14.13;66.87;100094.97;153910;1101;103133;-71
2021/07/20 02:17:33;;;;;;;7.20;5.83;;;;;;;14.14;67.12;100094.80;154092;1101;103154;-73
2021/07/20 02:20:43;;;;;;;9.08;6.20;;;;;;;14.12;67.38;100088.75;154116;1101;103263;-73
2021/07/20 02:23:55;;;;;;;8.85;5.80;;;;;;;14.14;67.22;100093.94;154047;1093;103205;-72
2021/07/20 02:27:04;;;;;;;8.77;6.20;;;;;;;14.13;67.61;100097.66;154035;1101;103119;-72
2021/07/20 02:30:16;;;;;;;8.63;5.58;;;;;;;14.18;67.45;100100.61;154083;1101;103186;-71
2021/07/20 02:33:23;;;;;;;9.63;5.80;;;;;;;14.23;67.31;100095.55;153957;1101;103375;-71
2021/07/20 02:36:30;;;;;;;8.03;5.80;;;;;;;14.27;67.33;100098.70;154014;1101;103139;-71
2021/07/20 02:39:36;;;;;;;8.55;6.00;;;;;;;14.33;67.53;100098.80;153933;1093;103269;-75
2021/07/20 02:42:42;;;;;;;10.90;6.30;;;;;;;14.36;67.69;100092.26;154011;1093;103141;-72
2021/07/20 02:45:48;;;;;;;8.63;5.83;;;;;;;14.36;67.80;100108.36;153975;1093;103211;-72
2021/07/20 02:48:55;;;;;;;8.08;5.65;;;;;;;14.35;67.98;100095.94;154000;1094;103168;-72
2021/07/20 02:52:03;;;;;;;8.20;4.87;;;;;;;14.37;67.57;100101.96;154003;1101;103112;-73
2021/07/20 02:55:12;;;;;;;11.13;5.80;;;;;;;14.44;68.09;100110.14;154030;1093;103209;-74
2021/07/20 02:58:19;;;;;;;11.53;5.60;;;;;;;14.45;68.04;100112.65;154010;1101;103205;-70
2021/07/20 03:01:27;;;;;;;8.43;6.20;;;;;;;14.44;68.17;100113.65;153882;1093;103141;-69
2021/07/20 03:04:33;;;;;;;10.43;6.10;;;;;;;14.41;68.42;100116.69;153871;1101;103125;-70
2021/07/20 03:07:40;;;;;;;9.17;6.30;;;;;;;14.43;68.35;100127.25;153884;1101;103129;-69
2021/07/20 03:10:47;;;;;;;11.15;6.20;;;;;;;14.43;68.44;100121.88;153737;1093;103228;-71
2021/07/20 03:14:00;;;;;;;8.15;5.80;;;;;;;14.46;68.79;100122.35;153734;1101;103107;-69
2021/07/20 03:17:08;;;;;;;11.67;5.93;;;;;;;14.51;68.80;100117.28;153849;1101;103183;-69
2021/07/20 03:20:16;;;;;;;8.33;5.78;;;;;;;14.59;68.62;100124.45;153823;1093;103139;-70
2021/07/20 03:23:23;;;;;;;9.48;6.45;;;;;;;14.63;68.95;100127.62;153859;1101;103203;-71
2021/07/20 03:26:30;;;;;;;8.50;5.80;;;;;;;14.61;68.90;100122.42;153825;1093;103164;-69
2021/07/20 03:29:42;;;;;;;10.73;6.43;;;;;;;14.59;68.97;100123.60;154017;1093;103113;-70
2021/07/20 03:32:49;;;;;;;12.17;6.50;;;;;;;14.60;69.55;100127.97;153834;1092;103579;-71
2021/07/20 03:36:18;;;;;;;9.13;5.87;;;;;;;14.82;69.10;100121.71;153801;1101;103157;-72
2021/07/20 03:39:26;;;;;;;7.80;5.20;;;;;;;14.97;69.17;100121.70;153843;1101;103275;-71
2021/07/20 03:42:32;;;;;;;10.53;6.03;;;;;;;15.05;69.08;100124.31;153917;1101;103221;-71
2021/07/20 03:45:39;;;;;;;10.23;6.20;;;;;;;15.06;69.44;100119.77;153871;1093;103557;-71
2021/07/20 03:48:44;;;;;;;10.30;6.30;;;;;;;15.09;69.48;100130.16;153884;1101;103130;-72
2021/07/20 03:52:01;;;;;;;34.35;12.38;;;;;;;15.16;69.84;100127.55;153929;1101;103235;-71
2021/07/20 03:55:08;;;;;;;39.25;14.00;;;;;;;15.22;69.78;100129.48;154071;1101;103219;-71
2021/07/20 03:58:17;;;;;;;34.80;13.18;;;;;;;15.31;69.74;100123.81;154039;1101;103193;-72
2021/07/20 04:01:28;;;;;;;40.30;15.00;;;;;;;15.48;69.96;100124.45;153996;1093;103150;-71
2021/07/20 04:04:38;;;;;;;25.07;10.90;;;;;;;15.64;69.74;100118.00;154124;1101;103091;-71
2021/07/20 04:07:48;;;;;;;30.93;12.47;;;;;;;15.80;69.73;100126.89;154017;1101;103196;-71
2021/07/20 04:10:55;;;;;;;21.65;8.78;;;;;;;15.98;69.51;100121.92;153993;1101;103128;-71
2021/07/20 04:14:17;;;;;;;13.87;6.70;;;;;;;16.17;69.54;100125.84;153831;1093;103221;-72
2021/07/20 04:17:29;;;;;;;10.77;6.30;;;;;;;16.44;69.52;100128.77;153996;1093;103170;-71
2021/07/20 04:20:36;;;;;;;9.65;6.50;;;;;;;16.64;69.20;100131.61;154003;1094;103240;-72
2021/07/20 04:23:44;;;;;;;12.00;6.63;;;;;;;16.76;69.52;100127.33;153954;1101;103132;-72
2021/07/20 04:26:57;;;;;;;10.38;6.33;;;;;;;16.84;69.09;100127.23;153988;1093;103572;-72
2021/07/20 04:30:04;;;;;;;8.98;5.63;;;;;;;16.99;68.79;100126.27;153979;1093;103294;-71
2021/07/20 04:33:15;;;;;;;8.65;5.30;;;;;;;17.22;69.49;100123.29;154060;1093;103224;-72
2021/07/20 04:36:39;;;;;;;8.73;5.75;;;;;;;17.46;69.00;100122.78;153949;1101;103125;-70
2021/07/20 04:39:56;;;;;;;8.88;6.33;;;;;;;17.74;68.73;100115.61;153769;1101;103144;-72
2021/07/20 04:43:03;;;;;;;9.18;6.23;;;;;;;18.02;68.95;100127.13;153991;1101;103221;-71
2021/07/20 04:46:09;;;;;;;9.00;5.80;;;;;;;18.40;68.65;100123.02;154003;1101;103255;-71
2021/07/20 04:49:16;;;;;;;8.57;5.30;;;;;;;18.70;68.15;100118.00;153956;1096;103140;-71
2021/07/20 04:52:22;;;;;;;11.80;6.17;;;;;;;18.85;67.33;100134.02;153934;1096;103118;-72
2021/07/20 04:55:30;;;;;;;8.23;5.40;;;;;;;18.88;67.65;100130.06;153766;1101;103143;-72
2021/07/20 04:58:39;;;;;;;9.05;5.68;;;;;;;19.08;67.19;100141.67;153947;1101;103136;-72
2021/07/20 05:01:46;;;;;;;9.00;6.25;;;;;;;19.04;67.25;100145.84;153893;1094;103186;-72
2021/07/20 05:04:53;;;;;;;8.00;6.53;;;;;;;19.21;67.56;100143.53;153991;1101;103224;-72
2021/07/20 05:08:02;;;;;;;9.73;6.45;;;;;;;19.39;66.37;100153.66;153920;1096;103169;-72
2021/07/20 05:11:14;;;;;;;7.57;6.23;;;;;;;19.18;66.93;100152.88;153798;1096;103214;-72
2021/07/20 05:14:21;;;;;;;8.27;6.67;;;;;;;19.36;66.97;100154.07;154037;1096;103208;-74
2021/07/20 05:17:28;;;;;;;7.40;5.08;;;;;;;19.54;67.00;100154.22;153967;1101;103227;-71
2021/07/20 05:20:33;;;;;;;9.23;5.13;;;;;;;19.68;66.81;100154.98;154022;1097;103193;-71
2021/07/20 05:23:45;;;;;;;10.30;5.40;;;;;;;20.02;66.79;100149.45;153940;1097;103141;-73
2021/07/20 05:27:12;;;;;;;15.90;12.60;;;;;;;20.56;66.32;100148.83;153928;1097;103439;-73
2021/07/20 05:30:20;;;;;;;9.97;7.10;;;;;;;20.85;65.13;100146.52;154057;1096;103200;-71
2021/07/20 05:33:25;;;;;;;10.93;6.60;;;;;;;20.99;65.89;100150.74;154009;1096;103100;-72
2021/07/20 05:36:41;;;;;;;9.37;7.40;;;;;;;21.05;64.65;100150.91;154047;1096;103142;-72
2021/07/20 05:39:48;;;;;;;5.03;4.53;;;;;;;21.07;64.93;100138.77;154079;1097;103126;-74
2021/07/20 05:42:58;;;;;;;8.00;5.50;;;;;;;20.83;65.26;100147.80;153924;1101;103578;-73
2021/07/20 05:46:12;;;;;;;11.27;6.13;;;;;;;20.76;64.74;100151.38;154002;1095;103048;-74
2021/07/20 05:49:18;;;;;;;11.17;6.13;;;;;;;20.42;64.44;100154.56;154049;1094;103332;-74
2021/07/20 05:52:24;;;;;;;7.67;5.67;;;;;;;20.02;64.94;100157.58;154114;1096;103202;-73
2021/07/20 05:55:32;;;;;;;9.08;6.40;;;;;;;20.04;65.88;100155.48;154014;1096;103107;-74
2021/07/20 05:58:39;;;;;;;7.15;5.10;;;;;;;20.23;65.65;100154.52;153936;1101;103131;-74
2021/07/20 06:01:45;;;;;;;7.53;5.40;;;;;;;20.35;65.07;100158.16;153961;1094;103135;-74
2021/07/20 06:04:54;;;;;;;5.83;4.43;;;;;;;20.34;65.42;100150.25;154012;1095;103474;-73
2021/07/20 06:07:59;;;;;;;7.03;5.13;;;;;;;20.52;65.26;100149.50;154009;1101;103195;-74
2021/07/20 06:11:07;;;;;;;8.37;5.40;;;;;;;20.53;64.88;100154.67;153966;1101;103144;-74
2021/07/20 06:14:13;;;;;;;8.83;5.08;;;;;;;20.38;64.92;100141.47;153949;1101;103233;-71
2021/07/20 06:17:21;;;;;;;7.67;5.30;;;;;;;20.35;65.33;100149.21;153996;1096;103654;-74
2021/07/20 06:20:26;;;;;;;7.23;5.80;;;;;;;20.15;65.25;100154.75;153955;1101;103227;-74
2021/07/20 06:23:40;;;;;;;7.90;5.67;;;;;;;20.03;65.18;100154.63;153999;1095;103557;-74
2021/07/20 06:26:46;;;;;;;7.53;5.63;;;;;;;19.93;65.66;100154.27;154022;1101;103142;-74
2021/07/20 06:29:55;;;;;;;6.43;4.98;;;;;;;19.89;65.63;100147.64;153889;1101;103118;-74
2021/07/20 06:33:00;;;;;;;9.20;4.35;;;;;;;19.93;65.68;100149.69;154003;1101;103630;-74
2021/07/20 06:36:06;;;;;;;7.93;4.50;;;;;;;20.09;65.69;100147.50;153920;1101;103275;-74
2021/07/20 06:39:11;;;;;;;7.70;4.63;;;;;;;20.17;65.48;100144.55;153985;1101;103208;-73
2021/07/20 06:42:17;;;;;;;8.75;4.93;;;;;;;20.19;64.50;100145.16;153995;1101;103097;-73
2021/07/20 06:45:23;;;;;;;7.20;4.60;;;;;;;20.00;65.29;100153.19;153927;1093;103115;-73
2021/07/20 06:48:29;;;;;;;9.03;5.00;;;;;;;20.05;65.75;100149.81;153970;1093;103128;-73
2021/07/20 06:51:34;;;;;;;6.90;4.60;;;;;;;20.05;65.96;100141.69;153918;1093;103180;-73
2021/07/20 06:54:39;;;;;;;7.25;4.38;;;;;;;20.00;65.44;100138.83;153973;1093;103564;-74
2021/07/20 06:57:48;;;;;;;6.68;4.78;;;;;;;19.99;65.60;100148.80;153929;1101;103110;-74
2021/07/20 07:00:56;;;;;;;7.43;4.00;;;;;;;20.02;65.98;100138.61;153940;1093;103585;-73
2021/07/20 07:04:05;;;;;;;6.27;3.80;;;;;;;20.15;65.48;100152.05;153966;1094;103566;-73
2021/07/20 07:07:12;;;;;;;6.73;4.03;;;;;;;20.24;65.62;100145.31;153967;1101;103264;-74
2021/07/20 07:10:18;;;;;;;9.45;4.40;;;;;;;20.35;65.75;100144.61;154037;1093;103103;-74
2021/07/20 07:13:24;;;;;;;6.30;3.60;;;;;;;20.40;64.90;100143.97;153954;1101;103195;-74
2021/07/20 07:16:30;;;;;;;8.08;4.10;;;;;;;20.50;65.65;100154.31;153954;1101;103125;-74
2021/07/20 07:19:39;;;;;;;7.45;3.75;;;;;;;20.65;65.10;100153.99;154012;1093;103583;-74
2021/07/20 07:22:45;;;;;;;5.05;3.68;;;;;;;20.72;64.90;100152.88;153943;1101;103126;-74
2021/07/20 07:25:54;;;;;;;5.83;3.40;;;;;;;20.76;65.27;100148.67;154023;1101;103195;-75
2021/07/20 07:28:59;;;;;;;5.53;3.48;;;;;;;20.81;64.63;100149.91;153988;1093;103199;-74
2021/07/20 07:32:05;;;;;;;4.47;3.10;;;;;;;20.95;64.82;100141.40;153909;1101;103125;-74
2021/07/20 07:35:12;;;;;;;3.57;2.90;;;;;;;21.12;64.47;100141.64;153954;1101;103119;-75
2021/07/20 07:38:20;;;;;;;3.83;2.90;;;;;;;21.16;64.13;100142.84;153950;1101;103266;-74
2021/07/20 07:41:27;;;;;;;4.83;2.98;;;;;;;21.15;63.91;100146.63;153991;1094;103199;-75
2021/07/20 07:44:33;;;;;;;5.70;2.97;;;;;;;21.20;64.19;100143.23;153999;1093;103199;-75
2021/07/20 07:47:39;;;;;;;5.30;2.73;;;;;;;21.31;62.54;100147.09;153956;1094;103226;-74
2021/07/20 07:50:45;;;;;;;4.67;2.87;;;;;;;21.28;62.21;100145.64;153952;1101;103206;-75
2021/07/20 07:53:51;;;;;;;3.68;2.50;;;;;;;21.36;62.87;100134.50;153968;1093;103228;-74
2021/07/20 07:56:56;;;;;;;3.93;2.80;;;;;;;21.40;62.32;100142.98;153922;1101;103578;-74
2021/07/20 08:00:04;;;;;;;4.67;2.63;;;;;;;21.52;62.78;100143.94;154018;1101;103129;-74
2021/07/20 08:03:18;;;;;;;4.60;2.85;;;;;;;21.69;62.90;100148.72;153906;1101;103127;-74
2021/07/20 08:06:25;;;;;;;6.20;3.38;;;;;;;21.81;62.41;100146.91;153957;1096;103190;-75
2021/07/20 08:09:33;;;;;;;4.68;3.10;;;;;;;21.92;62.80;100151.56;153954;1101;103224;-75
2021/07/20 08:12:40;;;;;;;4.40;2.88;;;;;;;22.13;61.89;100141.21;154014;1101;103128;-74
2021/07/20 08:15:49;;;;;;;3.75;2.70;;;;;;;22.21;61.73;100146.34;154012;1096;103153;-74
2021/07/20 08:18:55;;;;;;;3.80;2.73;;;;;;;21.99;59.99;100145.20;154004;1096;103128;-74
2021/07/20 08:22:02;;;;;;;6.07;2.87;;;;;;;21.94;61.05;100138.57;153949;1095;103257;-74
2021/07/20 08:25:12;;;;;;;3.50;2.90;;;;;;;22.16;61.40;100135.33;154005;1101;103214;-73
2021/07/20 08:28:27;;;;;;;3.83;2.60;;;;;;;22.38;58.75;100134.80;154001;1096;103493;-73
2021/07/20 08:31:43;;;;;;;2.95;2.48;;;;;;;22.54;60.00;100145.01;153947;1095;103146;-73
2021/07/20 08:34:52;;;;;;;3.65;2.73;;;;;;;22.91;60.16;100139.34;153962;1101;103198;-74
2021/07/20 08:38:00;;;;;;;4.37;2.80;;;;;;;23.30;59.34;100140.48;153935;1096;103607;-74
2021/07/20 08:41:21;;;;;;;3.57;2.70;;;;;;;23.52;55.87;100137.95;153948;1101;103266;-73
2021/07/20 08:44:35;;;;;;;;;;;;;;;23.37;57.88;100140.37;154056;1101;103127;-73
2021/07/20 08:48:05;;;;;;;3.80;2.60;;;;;;;23.19;56.58;100133.20;153921;1096;103177;-73
2021/07/20 08:51:17;;;;;;;4.70;2.50;;;;;;;23.32;57.22;100140.25;153947;1096;103365;-73
2021/07/20 08:54:29;;;;;;;3.90;2.33;;;;;;;23.43;55.81;100139.40;154006;1094;103198;-74
2021/07/20 08:57:39;;;;;;;3.73;2.43;;;;;;;23.17;56.18;100137.20;153971;1101;103218;-74
2021/07/20 09:00:49;;;;;;;4.00;2.20;;;;;;;22.77;55.80;100140.63;153983;1101;103187;-73
2021/07/20 09:04:00;;;;;;;4.30;2.40;;;;;;;22.49;58.01;100134.00;153937;1093;103128;-73
2021/07/20 09:07:11;;;;;;;3.73;2.20;;;;;;;22.70;57.54;100136.13;153985;1101;103196;-73
2021/07/20 09:10:16;;;;;;;3.70;2.40;;;;;;;22.92;58.07;100132.81;153998;1101;103561;-73
2021/07/20 09:13:28;;;;;;;11.20;3.20;;;;;;;23.10;57.75;100140.89;153948;1094;103572;-74
2021/07/20 09:16:33;;;;;;;;;;;;;;;23.45;57.91;100142.70;153988;1101;103192;-74
2021/07/20 09:19:46;;;;;;;3.83;2.50;;;;;;;23.58;54.75;100141.61;153995;1093;103141;-74
2021/07/20 09:22:57;;;;;;;3.57;2.33;;;;;;;23.61;56.04;100141.11;154011;1101;103129;-73
2021/07/20 09:26:03;;;;;;;;;;;;;;;23.83;57.25;100141.31;153993;1101;103224;-73
2021/07/20 09:29:13;;;;;;;3.47;2.43;;;;;;;23.97;56.41;100138.29;153935;1096;103266;-73
2021/07/20 09:32:35;;;;;;;4.37;2.40;;;;;;;24.17;56.85;100138.64;153976;1101;103118;-73
2021/07/20 09:35:49;;;;;;;3.87;2.60;;;;;;;24.53;55.89;100116.64;154064;1096;103221;-73
2021/07/20 09:39:14;;;;;;;3.80;2.50;;;;;;;24.60;53.91;100123.58;153984;1101;103128;-73
2021/07/20 09:42:36;;;;;;;3.75;2.20;;;;;;;24.59;51.81;100113.72;154006;1096;103582;-73
2021/07/20 09:45:45;;;;;;;3.73;2.33;;;;;;;24.47;51.77;100116.52;153982;1101;103576;-73
2021/07/20 09:48:55;;;;;;;3.58;2.60;;;;;;;24.56;52.60;100116.97;153977;1093;103259;-73
2021/07/20 09:52:14;;;;;;;4.85;2.50;;;;;;;24.54;53.91;100110.94;153936;1093;103126;-73
2021/07/20 09:55:35;;;;;;;4.65;2.30;;;;;;;24.71;53.06;100108.16;153967;1101;103125;-73
2021/07/20 09:58:53;;;;;;;2.95;2.33;;;;;;;24.63;51.81;100117.59;153988;1101;103144;-74
2021/07/20 10:02:02;;;;;;;5.25;2.70;;;;;;;24.55;51.71;100107.12;153946;1101;103289;-74
2021/07/20 10:05:14;;;;;;;4.20;2.73;;;;;;;24.34;52.30;100100.48;153993;1101;103221;-74
2021/07/20 10:08:25;;;;;;;2.67;2.30;;;;;;;24.03;50.34;100119.05;153933;1093;103194;-73
2021/07/20 10:11:37;;;;;;;2.53;2.25;;;;;;;23.65;52.00;100111.49;153936;1101;103221;-73
2021/07/20 10:14:58;;;;;;;3.60;2.90;;;;;;;23.59;53.14;100105.12;153999;1093;103211;-73
2021/07/20 10:18:10;;;;;;;3.23;2.50;;;;;;;23.64;52.14;100113.40;153975;1101;103129;-73
2021/07/20 10:21:20;;;;;;;6.90;2.60;;;;;;;23.59;52.31;100110.56;153985;1101;103129;-73
2021/07/20 10:24:28;;;;;;;3.20;2.67;;;;;;;23.68;52.45;100111.02;154070;1101;103128;-73
2021/07/20 10:27:39;;;;;;;3.45;2.25;;;;;;;23.70;51.65;100104.25;154012;1093;103190;-73
2021/07/20 10:30:52;;;;;;;3.23;2.40;;;;;;;23.84;52.64;100096.63;154052;1093;103569;-73
2021/07/20 10:34:04;;;;;;;3.48;2.43;;;;;;;24.27;52.61;100095.20;153966;1101;103183;-74
2021/07/20 10:37:15;;;;;;;3.30;2.50;;;;;;;24.35;51.43;100093.15;154000;1101;103199;-73
2021/07/20 10:40:23;;;;;;;3.17;2.20;;;;;;;24.13;50.84;100095.77;153988;1093;103131;-73
2021/07/20 10:43:33;;;;;;;2.58;2.10;;;;;;;23.95;51.20;100094.11;153972;1101;103193;-73
2021/07/20 10:46:39;;;;;;;3.58;2.45;;;;;;;23.87;50.58;100092.61;153994;1101;103126;-73
2021/07/20 10:49:54;;;;;;;4.13;2.30;;;;;;;23.76;50.96;100105.17;153946;1093;103560;-73
2021/07/20 10:53:07;;;;;;;3.10;2.18;;;;;;;23.72;51.47;100088.48;153987;1101;103133;-73
2021/07/20 10:56:21;;;;;;;5.23;2.23;;;;;;;23.84;51.17;100085.73;154012;1093;103122;-73
2021/07/20 10:59:44;;;;;;;3.13;2.10;;;;;;;23.96;51.58;100082.97;153967;1101;103104;-73
2021/07/20 11:03:01;;;;;;;3.63;2.35;;;;;;;24.26;51.34;100077.18;153976;1096;103132;-74
2021/07/20 11:06:13;;;;;;;3.60;2.45;;;;;;;24.59;50.79;100072.80;154021;1096;103226;-74
2021/07/20 11:09:21;;;;;;;2.83;2.30;;;;;;;24.62;48.55;100068.77;154092;1101;103195;-74
2021/07/20 11:12:31;;;;;;;3.35;2.00;;;;;;;24.54;49.30;100071.90;153959;1096;103227;-74
2021/07/20 11:15:38;;;;;;;3.38;2.10;;;;;;;24.39;49.74;100070.58;154036;1101;103129;-73
2021/07/20 11:18:45;;;;;;;2.67;2.00;;;;;;;24.16;49.82;100079.75;154014;1101;103136;-73
2021/07/20 11:21:51;;;;;;;3.20;2.03;;;;;;;23.95;49.28;100083.20;153980;1101;103273;-73
2021/07/20 11:24:57;;;;;;;2.15;1.85;;;;;;;23.81;49.93;100086.23;153977;1093;103192;-73
2021/07/20 11:28:03;;;;;;;2.25;2.05;;;;;;;23.63;50.04;100075.50;153964;1101;103132;-73
2021/07/20 11:31:13;;;;;;;3.07;2.20;;;;;;;23.46;49.92;100079.02;153977;1094;103147;-73
2021/07/20 11:34:23;;;;;;;2.73;2.10;;;;;;;23.40;50.57;100082.69;154032;1093;103096;-73
2021/07/20 11:37:33;;;;;;;2.47;2.20;;;;;;;23.52;49.51;100072.59;153965;1101;103197;-72
2021/07/20 11:40:42;;;;;;;4.33;2.53;;;;;;;23.57;50.07;100082.75;154000;1101;103125;-72
2021/07/20 11:44:02;;;;;;;4.25;2.05;;;;;;;23.53;49.90;100079.68;153950;1093;103192;-72
2021/07/20 11:47:12;;;;;;;3.37;2.30;;;;;;;23.58;49.91;100087.14;153978;1101;103192;-73
2021/07/20 11:50:26;;;;;;;3.10;2.43;;;;;;;23.46;49.64;100081.74;154004;1093;103157;-72
2021/07/20 11:53:45;;;;;;;4.53;2.33;;;;;;;23.53;50.04;100074.23;154048;1093;103137;-72
2021/07/20 11:57:00;;;;;;;3.55;2.23;;;;;;;23.57;49.75;100073.76;153977;1101;103195;-72
2021/07/20 12:00:18;;;;;;;3.08;2.35;;;;;;;23.70;49.84;100068.83;153967;1093;103213;-73
2021/07/20 12:03:34;;;;;;;4.18;2.40;;;;;;;23.93;49.50;100074.45;153993;1101;103256;-72
2021/07/20 12:06:55;;;;;;;5.27;2.83;;;;;;;23.92;48.36;100076.33;153982;1101;103157;-73
2021/07/20 12:10:16;;;;;;;4.25;2.63;;;;;;;24.05;49.32;100061.56;153921;1101;103113;-72
2021/07/20 12:13:22;;;;;;;3.43;2.40;;;;;;;24.22;48.42;100059.67;154084;1101;103131;-73
2021/07/20 12:16:28;;;;;;;2.50;2.13;;;;;;;24.24;48.80;100062.16;154036;1101;103190;-73
2021/07/20 12:19:35;;;;;;;4.45;2.60;;;;;;;24.32;47.99;100069.91;153926;1094;103139;-73
2021/07/20 12:22:41;;;;;;;2.98;2.43;;;;;;;24.26;48.52;100066.27;154035;1096;103192;-73
2021/07/20 12:25:47;;;;;;;4.98;2.48;;;;;;;24.36;48.32;100056.61;154049;1096;103206;-73
2021/07/20 12:28:52;;;;;;;3.98;2.35;;;;;;;24.64;47.61;100064.70;153996;1101;103134;-73
2021/07/20 12:31:57;;;;;;;3.35;2.10;;;;;;;24.66;47.98;100062.55;154018;1101;103187;-73
2021/07/20 12:35:03;;;;;;;3.63;2.28;;;;;;;24.69;48.13;100069.39;154037;1096;103567;-73
2021/07/20 12:38:11;;;;;;;3.23;2.40;;;;;;;24.69;47.57;100059.33;154026;1101;103215;-73
2021/07/20 12:41:18;;;;;;;2.75;2.18;;;;;;;24.64;46.66;100064.70;154007;1101;103197;-73
2021/07/20 12:44:24;;;;;;;3.53;2.40;;;;;;;24.67;47.85;100061.48;154074;1101;103208;-73
2021/07/20 12:47:37;;;;;;;2.60;2.17;;;;;;;24.85;47.53;100051.35;153912;1101;103570;-72
2021/07/20 12:50:42;;;;;;;3.10;2.30;;;;;;;24.96;47.81;100057.75;153969;1101;103140;-73
2021/07/20 12:53:49;;;;;;;2.80;2.13;;;;;;;24.99;47.75;100057.26;153935;1093;103208;-73
2021/07/20 12:56:55;;;;;;;2.67;2.23;;;;;;;25.05;47.44;100050.78;154001;1101;103178;-72
2021/07/20 13:00:01;;;;;;;3.10;2.15;;;;;;;24.96;46.72;100047.69;154121;1101;103166;-73
2021/07/20 13:03:08;;;;;;;2.47;2.07;;;;;;;25.00;45.89;100050.70;153983;1101;103170;-73
2021/07/20 13:06:16;;;;;;;3.55;2.20;;;;;;;25.01;46.39;100049.64;153993;1101;103144;-74
2021/07/20 13:09:22;;;;;;;2.63;2.10;;;;;;;24.95;46.36;100051.48;153988;1101;103179;-73
2021/07/20 13:12:27;;;;;;;4.23;2.00;;;;;;;24.92;46.31;100053.88;153991;1101;103251;-71
2021/07/20 13:15:33;;;;;;;2.85;2.20;;;;;;;24.92;46.78;100048.42;154155;1101;103103;-73
2021/07/20 13:18:38;;;;;;;3.55;2.45;;;;;;;25.08;46.90;100050.28;154144;1101;103107;-74
2021/07/20 13:21:44;;;;;;;3.10;2.30;;;;;;;25.14;44.16;100045.71;153916;1101;103128;-73
2021/07/20 13:24:49;;;;;;;2.05;1.85;;;;;;;25.06;42.51;100047.80;153996;1101;103138;-74
2021/07/20 13:27:56;;;;;;;5.00;2.73;;;;;;;25.07;44.88;100037.70;153955;1101;103275;-74
2021/07/20 13:31:03;;;;;;;3.30;2.50;;;;;;;25.30;44.07;100046.73;153954;1101;103199;-74
2021/07/20 13:34:17;;;;;;;2.37;2.17;;;;;;;25.25;45.39;100031.10;154090;1096;103219;-73
2021/07/20 13:37:23;;;;;;;3.28;2.30;;;;;;;25.40;43.56;100035.92;153973;1101;103154;-74
2021/07/20 13:40:28;;;;;;;2.27;1.97;;;;;;;25.32;42.18;100039.93;153960;1096;103184;-74
2021/07/20 13:43:35;;;;;;;2.90;2.00;;;;;;;25.22;43.91;100024.26;154028;1096;103324;-73
2021/07/20 13:46:44;;;;;;;2.70;2.10;;;;;;;25.47;43.73;100037.36;154648;1101;103214;-74
2021/07/20 13:49:53;;;;;;;6.27;2.40;;;;;;;25.54;43.78;100037.17;154044;1101;103202;-73
2021/07/20 13:53:02;;;;;;;2.70;2.40;;;;;;;25.30;43.34;100033.91;153933;1101;103119;-72
2021/07/20 13:56:18;;;;;;;2.63;2.23;;;;;;;25.19;44.45;100027.48;153948;1101;103096;-73
2021/07/20 13:59:30;;;;;;;2.50;2.27;;;;;;;25.39;44.31;100026.09;153973;1095;103294;-73
2021/07/20 14:02:38;;;;;;;3.97;2.10;;;;;;;25.46;43.52;100032.16;154019;1101;103193;-72
2021/07/20 14:05:44;;;;;;;3.60;2.17;;;;;;;25.33;44.07;100041.59;154092;1101;103668;-72
2021/07/20 14:08:50;;;;;;;2.45;1.90;;;;;;;25.27;43.45;100035.25;154062;1101;103114;-72
2021/07/20 14:11:56;;;;;;;3.00;2.03;;;;;;;25.18;43.99;100030.47;154052;1101;103193;-72
2021/07/20 14:15:04;;;;;;;4.05;2.50;;;;;;;25.11;44.44;100027.09;153968;1101;103227;-72
2021/07/20 14:18:12;;;;;;;4.83;2.23;;;;;;;25.14;44.53;100021.14;153957;1101;103106;-71
2021/07/20 14:21:27;;;;;;;2.88;2.20;;;;;;;25.02;43.26;100024.82;154204;1093;103574;-70
2021/07/20 14:24:32;;;;;;;2.18;1.80;;;;;;;25.06;44.47;100015.04;154010;1101;103104;-71